Saturday, October 20, 2018, 6:40 AM EDT
Back to Local

KBHB, Bar Harbor, Hancock County-bar Harbor Airport

Location: Ellsworth, ME, United States Lat: 44.45
Local Time: 6:40 AM EDT (10:40 GMT) Lon: -68.367
Time Zone: US/Eastern Elev: 82 ft

Show me the last for .
Show Decoded

2018-10-20 05:56 METAR KBHB 200956Z AUTO 22018G25KT 10SM BKN028 BKN110 13/09 A2964 RMK AO2 PK WND
                 20032/0938 SLP043 T01280089 =
2018-10-20 04:56 METAR KBHB 200856Z AUTO 21020G29KT 10SM OVC110 13/08 A2966 RMK AO2 PK WND
                 21030/0815 SLP047 T01280083 56025 =
2018-10-20 03:56 METAR KBHB 200756Z AUTO 21016G23KT 10SM FEW110 12/07 A2967 RMK AO2 PK WND
                 22027/0738 SLP052 T01220072 =
2018-10-20 02:56 METAR KBHB 200656Z AUTO 21017G26KT 10SM CLR 12/07 A2970 RMK AO2 PK WND
                 20026/0651 SLP062 T01170072 =
2018-10-20 01:56 METAR KBHB 200556Z AUTO 20014G19KT 10SM CLR 12/07 A2973 RMK AO2 SLP072 T01170072
                 10122 20067 56036 =
2018-10-20 00:56 METAR KBHB 200456Z AUTO 20016KT 10SM CLR 12/08 A2977 RMK AO2 SLP085 T01170083 =
2018-10-19 23:56 METAR KBHB 200356Z AUTO 20015KT 10SM CLR 12/08 A2980 RMK AO2 SLP094 T01170083 =
2018-10-19 22:56 METAR KBHB 200256Z AUTO 20010KT 10SM CLR 11/08 A2984 RMK AO2 SLP108 T01110083
                 56025 =
2018-10-19 21:56 METAR KBHB 200156Z AUTO 17007KT 10SM CLR 10/07 A2985 RMK AO2 SLP113 T01000067 =
2018-10-19 20:56 METAR KBHB 200056Z AUTO 17006KT 10SM CLR 08/06 A2989 RMK AO2 SLP126 T00830061 =
2018-10-19 19:56 METAR KBHB 192356Z AUTO 19007KT 10SM CLR 08/06 A2991 RMK AO2 SLP133 T00830056
                 10100 20078 401000000 58016 =
2018-10-19 18:56 METAR KBHB 192256Z AUTO 21010KT 10SM CLR 09/04 A2994 RMK AO2 SLP144 T00890044 =
2018-10-19 17:56 METAR KBHB 192156Z AUTO 21015KT 10SM SCT025 09/04 A2994 RMK AO2 SLP144 T00890044
                 =
2018-10-19 16:56 METAR KBHB 192056Z AUTO 20014G17KT 10SM BKN025 09/04 A2996 RMK AO2 SLP149
                 T00890044 58009 =
2018-10-19 15:56 METAR KBHB 191956Z AUTO 20016G22KT 10SM CLR 09/04 A2997 RMK AO2 SLP152 T00940039
                 =
2018-10-19 14:47 METAR KBHB 191847Z AUTO 19017G21KT 10SM BKN028 10/04 A2998 RMK AO2 =
2018-10-19 13:56 METAR KBHB 191756Z AUTO 19014KT 10SM CLR 09/03 A3001 RMK AO2 SLP168 T00940033
                 10100 20033 58032 =
2018-10-19 12:56 METAR KBHB 191656Z AUTO 18014G19KT 10SM CLR 09/02 A3004 RMK AO2 SLP178 T00940017
                 =
2018-10-19 11:56 METAR KBHB 191556Z AUTO 20011KT 10SM FEW041 09/00 A3008 RMK AO2 SLP190 T00890000
                 =
2018-10-19 10:56 METAR KBHB 191456Z AUTO 24009KT 10SM OVC060 07/M02 A3011 RMK AO2 SLP200
                 T00721017 58014 =
2018-10-19 09:56 METAR KBHB 191356Z AUTO 22006KT 10SM FEW046 OVC065 06/M03 A3014 RMK AO2 SLP210
                 T00561028 =
2018-10-19 08:56 METAR KBHB 191256Z AUTO 23004KT 10SM OVC065 04/M04 A3015 RMK AO2 SLP213
                 T00441039 =
2018-10-19 07:56 METAR KBHB 191156Z AUTO 00000KT 10SM OVC065 03/M04 A3015 RMK AO2 SLP214
                 T00331039 10033 20011 56006 =
2018-10-19 06:56 METAR KBHB 191056Z AUTO 00000KT 10SM OVC070 02/M05 A3016 RMK AO2 SLP216
                 T00221050 FZRANO =

Support USWX by starting your Amazon purchase here.